CMP890 MDPP-MPTO
Flight info
| Callsign | CMP890 |
|---|---|
| Flight time | 2h 3m |
| Altitude | 36000 |
| Route | POKIL1 POKIL PIXOK T13 BEXIL T11 PALAS M597 OROSA A319 AGUJA MEVI1A |
| Aircraft | B38M/M-SDE3FGHIRWY/S |
Departure
| Time | 2026-05-07 18:30 |
|---|---|
| Airport | Gregorio Luperon International Airport (MDPP) |
Arrival
| Time | 2026-05-07 20:33 |
|---|---|
| Airport | Tocumen International Airport (MPTO) |
| Time | Latitude | Longitude | Altitude | Speed | Heading |
|---|---|---|---|---|---|
| 2026-05-07 18:16 | 19.75640 | -70.56341 | 37 ft | 0 kts | 217° |
| 2026-05-07 18:21 | 19.75660 | -70.56326 | 26 ft | 4 kts | 211° |
| 2026-05-07 18:21 | 19.75682 | -70.56311 | 37 ft | 4 kts | 224° |
| 2026-05-07 18:22 | 19.75691 | -70.56297 | 37 ft | 0 kts | 251° |
| 2026-05-07 18:24 | 19.75690 | -70.56304 | 37 ft | 2 kts | 268° |
| 2026-05-07 18:25 | 19.75695 | -70.56332 | 37 ft | 6 kts | 289° |
| 2026-05-07 18:25 | 19.75710 | -70.56382 | 37 ft | 8 kts | 266° |
| 2026-05-07 18:25 | 19.75696 | -70.56455 | 37 ft | 12 kts | 254° |
| 2026-05-07 18:25 | 19.75666 | -70.56559 | 36 ft | 17 kts | 252° |
| 2026-05-07 18:26 | 19.75627 | -70.56690 | 35 ft | 20 kts | 258° |
| 2026-05-07 18:26 | 19.75580 | -70.56844 | 37 ft | 24 kts | 255° |
| 2026-05-07 18:26 | 19.75536 | -70.57016 | 37 ft | 22 kts | 268° |
| 2026-05-07 18:26 | 19.75621 | -70.57144 | 36 ft | 23 kts | 313° |
| 2026-05-07 18:27 | 19.75695 | -70.57294 | 35 ft | 23 kts | 249° |
| 2026-05-07 18:27 | 19.75652 | -70.57458 | 35 ft | 24 kts | 251° |
| 2026-05-07 18:27 | 19.75605 | -70.57625 | 35 ft | 22 kts | 252° |
| 2026-05-07 18:27 | 19.75576 | -70.57724 | 37 ft | 22 kts | 253° |
| 2026-05-07 18:28 | 19.75512 | -70.57936 | 36 ft | 23 kts | 250° |
| 2026-05-07 18:28 | 19.75473 | -70.58101 | 39 ft | 24 kts | 253° |
| 2026-05-07 18:28 | 19.75416 | -70.58277 | 38 ft | 26 kts | 243° |
| 2026-05-07 18:28 | 19.75372 | -70.58381 | 38 ft | 6 kts | 328° |
| 2026-05-07 18:29 | 19.75397 | -70.58357 | 38 ft | 7 kts | 66° |
| 2026-05-07 18:29 | 19.75408 | -70.58314 | 38 ft | 0 kts | 73° |
| 2026-05-07 18:29 | 19.75410 | -70.58307 | 38 ft | 3 kts | 73° |
| 2026-05-07 18:29 | 19.75458 | -70.58139 | 39 ft | 64 kts | 73° |
| 2026-05-07 18:30 | 19.75670 | -70.57380 | 38 ft | 146 kts | 76° |
| 2026-05-07 18:30 | 19.75999 | -70.56273 | 727 ft | 164 kts | 72° |
| 2026-05-07 18:30 | 19.76369 | -70.55050 | 1597 ft | 186 kts | 73° |
| 2026-05-07 18:30 | 19.76773 | -70.53642 | 2382 ft | 212 kts | 77° |
| 2026-05-07 18:31 | 19.77220 | -70.52056 | 3196 ft | 235 kts | 75° |
| 2026-05-07 18:31 | 19.77713 | -70.50314 | 4123 ft | 255 kts | 77° |
| 2026-05-07 18:31 | 19.78246 | -70.48450 | 5135 ft | 272 kts | 76° |
| 2026-05-07 18:31 | 19.78769 | -70.46510 | 6360 ft | 274 kts | 80° |
| 2026-05-07 18:32 | 19.78720 | -70.44486 | 7437 ft | 278 kts | 108° |
| 2026-05-07 18:32 | 19.77741 | -70.42737 | 8579 ft | 281 kts | 136° |
| 2026-05-07 18:32 | 19.76049 | -70.41664 | 9592 ft | 289 kts | 164° |
| 2026-05-07 18:32 | 19.74031 | -70.41549 | 10564 ft | 299 kts | 190° |
| 2026-05-07 18:33 | 19.72073 | -70.42394 | 11274 ft | 313 kts | 217° |
| 2026-05-07 18:33 | 19.70642 | -70.44143 | 12089 ft | 320 kts | 244° |
| 2026-05-07 18:33 | 19.69750 | -70.46293 | 12995 ft | 324 kts | 247° |
| 2026-05-07 18:33 | 19.68801 | -70.48471 | 13985 ft | 327 kts | 246° |
| 2026-05-07 18:34 | 19.67493 | -70.50472 | 14767 ft | 336 kts | 227° |
| 2026-05-07 18:34 | 19.65566 | -70.51902 | 15609 ft | 345 kts | 207° |
| 2026-05-07 18:34 | 19.63309 | -70.52852 | 16322 ft | 353 kts | 202° |
| 2026-05-07 18:34 | 19.60998 | -70.53791 | 17105 ft | 358 kts | 201° |
| 2026-05-07 18:35 | 19.58639 | -70.54733 | 17832 ft | 364 kts | 201° |
| 2026-05-07 18:35 | 19.56264 | -70.55671 | 18596 ft | 367 kts | 201° |
| 2026-05-07 18:35 | 19.53853 | -70.56620 | 19215 ft | 373 kts | 201° |
| 2026-05-07 18:35 | 19.51401 | -70.57584 | 19830 ft | 378 kts | 200° |
| 2026-05-07 18:36 | 19.48923 | -70.58557 | 20411 ft | 384 kts | 201° |
| 2026-05-07 18:36 | 19.46403 | -70.59546 | 20999 ft | 389 kts | 200° |
| 2026-05-07 18:36 | 19.43843 | -70.60550 | 21596 ft | 395 kts | 200° |
| 2026-05-07 18:36 | 19.41246 | -70.61569 | 22172 ft | 400 kts | 200° |
| 2026-05-07 18:37 | 19.38613 | -70.62601 | 22761 ft | 406 kts | 200° |
| 2026-05-07 18:37 | 19.35952 | -70.63645 | 23355 ft | 411 kts | 200° |
| 2026-05-07 18:37 | 19.33257 | -70.64701 | 23867 ft | 416 kts | 200° |
| 2026-05-07 18:37 | 19.30529 | -70.65769 | 24407 ft | 419 kts | 200° |
| 2026-05-07 18:38 | 19.27787 | -70.66842 | 24970 ft | 421 kts | 201° |
| 2026-05-07 18:38 | 19.25073 | -70.67904 | 25509 ft | 424 kts | 200° |
| 2026-05-07 18:38 | 19.22297 | -70.68991 | 26053 ft | 426 kts | 201° |
| 2026-05-07 18:38 | 19.19540 | -70.70161 | 26557 ft | 429 kts | 205° |
| 2026-05-07 18:39 | 19.16801 | -70.71443 | 27080 ft | 432 kts | 204° |
| 2026-05-07 18:39 | 19.14035 | -70.72718 | 27593 ft | 435 kts | 204° |
| 2026-05-07 18:39 | 19.11252 | -70.73994 | 28110 ft | 438 kts | 204° |
| 2026-05-07 18:39 | 19.08448 | -70.75275 | 28626 ft | 441 kts | 204° |
| 2026-05-07 18:40 | 19.05617 | -70.76568 | 29097 ft | 444 kts | 204° |
| 2026-05-07 18:40 | 19.02779 | -70.77863 | 29593 ft | 447 kts | 204° |
| 2026-05-07 18:40 | 18.99916 | -70.79169 | 30080 ft | 450 kts | 204° |
| 2026-05-07 18:40 | 18.98007 | -70.80040 | 30342 ft | 452 kts | 204° |
| 2026-05-07 18:41 | 18.95109 | -70.81360 | 30705 ft | 456 kts | 204° |
| 2026-05-07 18:41 | 18.92179 | -70.82696 | 31048 ft | 460 kts | 204° |
| 2026-05-07 18:41 | 18.89231 | -70.84039 | 31405 ft | 463 kts | 204° |
| 2026-05-07 18:41 | 18.86259 | -70.85392 | 31761 ft | 467 kts | 204° |
| 2026-05-07 18:42 | 18.83255 | -70.86759 | 32121 ft | 471 kts | 204° |
| 2026-05-07 18:42 | 18.80246 | -70.88129 | 32469 ft | 475 kts | 204° |
| 2026-05-07 18:42 | 18.77199 | -70.89515 | 32805 ft | 478 kts | 204° |
| 2026-05-07 18:42 | 18.74134 | -70.90908 | 33191 ft | 480 kts | 204° |
| 2026-05-07 18:43 | 18.71050 | -70.92310 | 33547 ft | 483 kts | 204° |
| 2026-05-07 18:43 | 18.67950 | -70.93717 | 33873 ft | 487 kts | 204° |
| 2026-05-07 18:43 | 18.64821 | -70.95139 | 34179 ft | 491 kts | 204° |
| 2026-05-07 18:43 | 18.61681 | -70.96569 | 34505 ft | 493 kts | 204° |
| 2026-05-07 18:44 | 18.58526 | -70.98004 | 34824 ft | 496 kts | 204° |
| 2026-05-07 18:44 | 18.55361 | -70.99444 | 35162 ft | 497 kts | 204° |
| 2026-05-07 18:44 | 18.52189 | -71.00885 | 35539 ft | 496 kts | 204° |
| 2026-05-07 18:44 | 18.49020 | -71.02326 | 35905 ft | 497 kts | 204° |
| 2026-05-07 18:45 | 18.45873 | -71.03755 | 36046 ft | 497 kts | 204° |
| 2026-05-07 18:45 | 18.39564 | -71.06619 | 36025 ft | 493 kts | 204° |
| 2026-05-07 18:46 | 18.33266 | -71.09476 | 36020 ft | 492 kts | 204° |
| 2026-05-07 18:46 | 18.26963 | -71.12332 | 36050 ft | 493 kts | 204° |
| 2026-05-07 18:47 | 18.20470 | -71.14657 | 36053 ft | 494 kts | 198° |
| 2026-05-07 18:47 | 18.13918 | -71.16832 | 36047 ft | 493 kts | 198° |
| 2026-05-07 18:48 | 18.07416 | -71.18982 | 36058 ft | 494 kts | 198° |
| 2026-05-07 18:48 | 18.00858 | -71.21148 | 36040 ft | 493 kts | 198° |
| 2026-05-07 18:49 | 17.94305 | -71.23310 | 36034 ft | 494 kts | 198° |
| 2026-05-07 18:49 | 17.87762 | -71.25467 | 36034 ft | 494 kts | 198° |
| 2026-05-07 18:50 | 17.81194 | -71.27632 | 36022 ft | 493 kts | 198° |
| 2026-05-07 18:50 | 17.74641 | -71.29789 | 36021 ft | 494 kts | 198° |
| 2026-05-07 18:51 | 17.68087 | -71.31945 | 36022 ft | 494 kts | 198° |
| 2026-05-07 18:51 | 17.61537 | -71.34099 | 36013 ft | 493 kts | 198° |
| 2026-05-07 18:52 | 17.54987 | -71.36250 | 36013 ft | 493 kts | 198° |
| 2026-05-07 18:52 | 17.48475 | -71.38387 | 36010 ft | 493 kts | 198° |
| 2026-05-07 18:53 | 17.41922 | -71.40537 | 36012 ft | 494 kts | 198° |
| 2026-05-07 18:53 | 17.35373 | -71.42683 | 36011 ft | 493 kts | 198° |
| 2026-05-07 18:54 | 17.28821 | -71.44829 | 36013 ft | 493 kts | 198° |
| 2026-05-07 18:54 | 17.22268 | -71.46973 | 36012 ft | 493 kts | 198° |
| 2026-05-07 18:55 | 17.15718 | -71.49114 | 36011 ft | 493 kts | 198° |
| 2026-05-07 18:55 | 17.09209 | -71.51238 | 36009 ft | 493 kts | 198° |
| 2026-05-07 18:56 | 17.02652 | -71.53377 | 36011 ft | 493 kts | 198° |
| 2026-05-07 18:56 | 16.96094 | -71.55515 | 36011 ft | 493 kts | 198° |
| 2026-05-07 18:57 | 16.89563 | -71.57642 | 36007 ft | 491 kts | 198° |
| 2026-05-07 18:57 | 16.83039 | -71.59765 | 36008 ft | 491 kts | 198° |
| 2026-05-07 18:58 | 16.76511 | -71.61888 | 36010 ft | 491 kts | 198° |
| 2026-05-07 18:58 | 16.69985 | -71.64009 | 36002 ft | 491 kts | 198° |
| 2026-05-07 18:59 | 16.63489 | -71.66119 | 36004 ft | 491 kts | 198° |
| 2026-05-07 18:59 | 16.57119 | -71.68642 | 35978 ft | 487 kts | 215° |
| 2026-05-07 18:59 | 16.54498 | -71.70833 | 36016 ft | 482 kts | 227° |
| 2026-05-07 19:00 | 16.52071 | -71.73251 | 35978 ft | 483 kts | 227° |
| 2026-05-07 19:00 | 16.47268 | -71.78159 | 36002 ft | 483 kts | 227° |
| 2026-05-07 19:01 | 16.42519 | -71.83097 | 35999 ft | 483 kts | 228° |
| 2026-05-07 19:01 | 16.37799 | -71.88016 | 35992 ft | 483 kts | 228° |
| 2026-05-07 19:02 | 16.33049 | -71.92961 | 35984 ft | 482 kts | 228° |
| 2026-05-07 19:02 | 16.28303 | -71.97900 | 35993 ft | 482 kts | 228° |
| 2026-05-07 19:03 | 16.23558 | -72.02834 | 35987 ft | 481 kts | 228° |
| 2026-05-07 19:03 | 16.18821 | -72.07756 | 35990 ft | 481 kts | 228° |
| 2026-05-07 19:04 | 16.14109 | -72.12647 | 35991 ft | 481 kts | 228° |
| 2026-05-07 19:04 | 16.09376 | -72.17559 | 35984 ft | 481 kts | 227° |
| 2026-05-07 19:05 | 16.04634 | -72.22475 | 35987 ft | 481 kts | 227° |
| 2026-05-07 19:05 | 15.99887 | -72.27394 | 35977 ft | 481 kts | 227° |
| 2026-05-07 19:06 | 15.95158 | -72.32289 | 35982 ft | 479 kts | 227° |
| 2026-05-07 19:06 | 15.88112 | -72.39578 | 35982 ft | 478 kts | 227° |
| 2026-05-07 19:07 | 15.83381 | -72.44468 | 35979 ft | 478 kts | 227° |
| 2026-05-07 19:07 | 15.78683 | -72.49320 | 35980 ft | 479 kts | 227° |
| 2026-05-07 19:08 | 15.73972 | -72.54182 | 35977 ft | 478 kts | 227° |
| 2026-05-07 19:08 | 15.69252 | -72.59050 | 35977 ft | 478 kts | 227° |
| 2026-05-07 19:09 | 15.64535 | -72.63911 | 35978 ft | 477 kts | 227° |
| 2026-05-07 19:09 | 15.59821 | -72.68766 | 35977 ft | 476 kts | 227° |
| 2026-05-07 19:10 | 15.55126 | -72.73599 | 35974 ft | 476 kts | 227° |
| 2026-05-07 19:10 | 15.50419 | -72.78440 | 35970 ft | 476 kts | 227° |
| 2026-05-07 19:11 | 15.45715 | -72.83274 | 35971 ft | 476 kts | 227° |
| 2026-05-07 19:11 | 15.41010 | -72.88108 | 35972 ft | 476 kts | 227° |
| 2026-05-07 19:12 | 15.36330 | -72.92911 | 35969 ft | 476 kts | 227° |
| 2026-05-07 19:12 | 15.31626 | -72.97736 | 35961 ft | 475 kts | 226° |
| 2026-05-07 19:13 | 15.26936 | -73.02544 | 35966 ft | 473 kts | 226° |
| 2026-05-07 19:13 | 15.22253 | -73.07341 | 35965 ft | 473 kts | 226° |
| 2026-05-07 19:14 | 15.17572 | -73.12133 | 35963 ft | 473 kts | 226° |
| 2026-05-07 19:14 | 15.12906 | -73.16907 | 35961 ft | 473 kts | 226° |
| 2026-05-07 19:15 | 15.08224 | -73.21694 | 35963 ft | 473 kts | 226° |
| 2026-05-07 19:15 | 15.03538 | -73.26479 | 35959 ft | 473 kts | 226° |
| 2026-05-07 19:16 | 14.98849 | -73.31264 | 35953 ft | 473 kts | 226° |
| 2026-05-07 19:16 | 14.94171 | -73.36035 | 35956 ft | 472 kts | 226° |
| 2026-05-07 19:17 | 14.89488 | -73.40808 | 35954 ft | 472 kts | 226° |
| 2026-05-07 19:17 | 14.84847 | -73.45536 | 35955 ft | 472 kts | 226° |
| 2026-05-07 19:18 | 14.80137 | -73.50331 | 35955 ft | 472 kts | 226° |
| 2026-05-07 19:18 | 14.75492 | -73.55056 | 35950 ft | 472 kts | 226° |
| 2026-05-07 19:19 | 14.70808 | -73.59818 | 35950 ft | 472 kts | 226° |
| 2026-05-07 19:19 | 14.66121 | -73.64579 | 35951 ft | 472 kts | 226° |
| 2026-05-07 19:20 | 14.61444 | -73.69329 | 35949 ft | 471 kts | 226° |
| 2026-05-07 19:20 | 14.56792 | -73.74050 | 35949 ft | 471 kts | 226° |
| 2026-05-07 19:21 | 14.52110 | -73.78798 | 35945 ft | 471 kts | 226° |
| 2026-05-07 19:21 | 14.47436 | -73.83534 | 35944 ft | 471 kts | 226° |
| 2026-05-07 19:22 | 14.42760 | -73.88271 | 35943 ft | 471 kts | 226° |
| 2026-05-07 19:22 | 14.38075 | -73.93013 | 35941 ft | 471 kts | 225° |
| 2026-05-07 19:23 | 14.33426 | -73.97715 | 35935 ft | 471 kts | 226° |
| 2026-05-07 19:23 | 14.28792 | -74.02491 | 35935 ft | 471 kts | 226° |
| 2026-05-07 19:24 | 14.24171 | -74.07282 | 35935 ft | 470 kts | 226° |
| 2026-05-07 19:24 | 14.19542 | -74.12076 | 35938 ft | 470 kts | 226° |
| 2026-05-07 19:25 | 14.14928 | -74.16862 | 35941 ft | 470 kts | 226° |
| 2026-05-07 19:25 | 14.10340 | -74.21626 | 35939 ft | 470 kts | 226° |
| 2026-05-07 19:26 | 14.05733 | -74.26406 | 35944 ft | 470 kts | 226° |
| 2026-05-07 19:26 | 14.01118 | -74.31191 | 35946 ft | 470 kts | 226° |
| 2026-05-07 19:27 | 13.96510 | -74.35965 | 35930 ft | 471 kts | 226° |
| 2026-05-07 19:27 | 13.91894 | -74.40745 | 35935 ft | 471 kts | 226° |
| 2026-05-07 19:28 | 13.88058 | -74.44714 | 35927 ft | 470 kts | 226° |
| 2026-05-07 19:28 | 13.83449 | -74.49482 | 35921 ft | 470 kts | 227° |
| 2026-05-07 19:29 | 13.78842 | -74.54244 | 35925 ft | 470 kts | 227° |
| 2026-05-07 19:29 | 13.74223 | -74.59017 | 35930 ft | 469 kts | 226° |
| 2026-05-07 19:30 | 13.69607 | -74.63783 | 35927 ft | 470 kts | 226° |
| 2026-05-07 19:30 | 13.64978 | -74.68560 | 35931 ft | 470 kts | 226° |
| 2026-05-07 19:31 | 13.60386 | -74.73296 | 35935 ft | 471 kts | 226° |
| 2026-05-07 19:31 | 13.55754 | -74.78072 | 35932 ft | 471 kts | 226° |
| 2026-05-07 19:32 | 13.51131 | -74.82834 | 35927 ft | 471 kts | 226° |
| 2026-05-07 19:32 | 13.46507 | -74.87594 | 35926 ft | 471 kts | 226° |
| 2026-05-07 19:33 | 13.41875 | -74.92360 | 35915 ft | 471 kts | 226° |
| 2026-05-07 19:33 | 13.37255 | -74.97112 | 35911 ft | 470 kts | 225° |
| 2026-05-07 19:34 | 13.32659 | -75.01834 | 35905 ft | 471 kts | 226° |
| 2026-05-07 19:34 | 13.28020 | -75.06598 | 35907 ft | 470 kts | 226° |
| 2026-05-07 19:35 | 13.23395 | -75.11347 | 35914 ft | 470 kts | 226° |
| 2026-05-07 19:35 | 13.18773 | -75.16089 | 35910 ft | 470 kts | 226° |
| 2026-05-07 19:36 | 13.14138 | -75.20843 | 35917 ft | 471 kts | 226° |
| 2026-05-07 19:36 | 13.09540 | -75.25555 | 35920 ft | 469 kts | 226° |
| 2026-05-07 19:37 | 13.04913 | -75.30295 | 35919 ft | 470 kts | 225° |
| 2026-05-07 19:37 | 13.00286 | -75.35032 | 35916 ft | 471 kts | 226° |
| 2026-05-07 19:38 | 12.95653 | -75.39772 | 35915 ft | 471 kts | 225° |
| 2026-05-07 19:38 | 12.91025 | -75.44499 | 35903 ft | 469 kts | 226° |
| 2026-05-07 19:39 | 12.86409 | -75.49212 | 35901 ft | 469 kts | 225° |
| 2026-05-07 19:39 | 12.81791 | -75.53925 | 35897 ft | 469 kts | 225° |
| 2026-05-07 19:40 | 12.77173 | -75.58634 | 35894 ft | 468 kts | 226° |
| 2026-05-07 19:40 | 12.72555 | -75.63342 | 35897 ft | 468 kts | 225° |
| 2026-05-07 19:41 | 12.67956 | -75.68028 | 35902 ft | 469 kts | 225° |
| 2026-05-07 19:41 | 12.63318 | -75.72750 | 35904 ft | 469 kts | 225° |
| 2026-05-07 19:42 | 12.58681 | -75.77470 | 35908 ft | 468 kts | 225° |
| 2026-05-07 19:42 | 12.54057 | -75.82174 | 35908 ft | 469 kts | 225° |
| 2026-05-07 19:43 | 12.49433 | -75.86874 | 35902 ft | 469 kts | 225° |
| 2026-05-07 19:43 | 12.44809 | -75.91573 | 35897 ft | 468 kts | 225° |
| 2026-05-07 19:44 | 12.40219 | -75.96234 | 35896 ft | 468 kts | 225° |
| 2026-05-07 19:44 | 12.35596 | -76.00926 | 35885 ft | 469 kts | 225° |
| 2026-05-07 19:45 | 12.30961 | -76.05629 | 35889 ft | 469 kts | 225° |
| 2026-05-07 19:45 | 12.26326 | -76.10327 | 35885 ft | 468 kts | 225° |
| 2026-05-07 19:46 | 12.21721 | -76.14995 | 35891 ft | 468 kts | 225° |
| 2026-05-07 19:46 | 12.17097 | -76.19680 | 35893 ft | 467 kts | 225° |
| 2026-05-07 19:47 | 12.12472 | -76.24363 | 35898 ft | 466 kts | 225° |
| 2026-05-07 19:47 | 12.07854 | -76.29036 | 35892 ft | 467 kts | 225° |
| 2026-05-07 19:48 | 12.03244 | -76.33699 | 35891 ft | 468 kts | 225° |
| 2026-05-07 19:48 | 11.98611 | -76.38383 | 35883 ft | 468 kts | 224° |
| 2026-05-07 19:49 | 11.94016 | -76.43026 | 35877 ft | 468 kts | 224° |
| 2026-05-07 19:49 | 11.89389 | -76.47699 | 35874 ft | 468 kts | 224° |
| 2026-05-07 19:50 | 11.84752 | -76.52379 | 35877 ft | 467 kts | 224° |
| 2026-05-07 19:50 | 11.80158 | -76.57015 | 35881 ft | 466 kts | 224° |
| 2026-05-07 19:51 | 11.75535 | -76.61677 | 35886 ft | 466 kts | 224° |
| 2026-05-07 19:51 | 11.70912 | -76.66336 | 35889 ft | 467 kts | 224° |
| 2026-05-07 19:52 | 11.66281 | -76.71002 | 35887 ft | 468 kts | 224° |
| 2026-05-07 19:52 | 11.61647 | -76.75666 | 35881 ft | 468 kts | 224° |
| 2026-05-07 19:53 | 11.57018 | -76.80326 | 35881 ft | 468 kts | 224° |
| 2026-05-07 19:53 | 11.52391 | -76.84980 | 35873 ft | 468 kts | 224° |
| 2026-05-07 19:54 | 11.47793 | -76.89604 | 35874 ft | 467 kts | 224° |
| 2026-05-07 19:54 | 11.43169 | -76.94251 | 35877 ft | 466 kts | 224° |
| 2026-05-07 19:55 | 11.38543 | -76.98898 | 35880 ft | 467 kts | 224° |
| 2026-05-07 19:55 | 11.34070 | -77.03677 | 35884 ft | 466 kts | 226° |
| 2026-05-07 19:56 | 11.29599 | -77.08454 | 35882 ft | 466 kts | 226° |
| 2026-05-07 19:56 | 11.25117 | -77.13235 | 35882 ft | 466 kts | 226° |
| 2026-05-07 19:57 | 11.20643 | -77.18004 | 35879 ft | 466 kts | 226° |
| 2026-05-07 19:57 | 11.16169 | -77.22772 | 35875 ft | 466 kts | 226° |
| 2026-05-07 19:58 | 11.11694 | -77.27538 | 35876 ft | 465 kts | 226° |
| 2026-05-07 19:58 | 11.07249 | -77.32269 | 35875 ft | 465 kts | 226° |
| 2026-05-07 19:59 | 11.02771 | -77.37035 | 35876 ft | 465 kts | 226° |
| 2026-05-07 19:59 | 10.98282 | -77.41761 | 35875 ft | 463 kts | 224° |
| 2026-05-07 20:00 | 10.93684 | -77.46354 | 35885 ft | 464 kts | 224° |
| 2026-05-07 20:00 | 10.89085 | -77.50973 | 35883 ft | 464 kts | 224° |
| 2026-05-07 20:01 | 10.84493 | -77.55585 | 35879 ft | 464 kts | 224° |
| 2026-05-07 20:01 | 10.79937 | -77.60159 | 35873 ft | 464 kts | 224° |
| 2026-05-07 20:02 | 10.75348 | -77.64764 | 35871 ft | 464 kts | 224° |
| 2026-05-07 20:02 | 10.70754 | -77.69372 | 35876 ft | 464 kts | 224° |
| 2026-05-07 20:03 | 10.66160 | -77.73978 | 35878 ft | 463 kts | 224° |
| 2026-05-07 20:03 | 10.61567 | -77.78581 | 35875 ft | 463 kts | 224° |
| 2026-05-07 20:04 | 10.56974 | -77.83181 | 35882 ft | 463 kts | 224° |
| 2026-05-07 20:04 | 10.52647 | -77.87513 | 35883 ft | 464 kts | 224° |
| 2026-05-07 20:05 | 10.48059 | -77.92105 | 35878 ft | 463 kts | 224° |
| 2026-05-07 20:05 | 10.43512 | -77.96654 | 35878 ft | 464 kts | 224° |
| 2026-05-07 20:06 | 10.38914 | -78.01252 | 35874 ft | 463 kts | 224° |
| 2026-05-07 20:06 | 10.34320 | -78.05844 | 35875 ft | 462 kts | 224° |
| 2026-05-07 20:07 | 10.29748 | -78.10412 | 35875 ft | 460 kts | 224° |
| 2026-05-07 20:07 | 10.25188 | -78.14965 | 35876 ft | 460 kts | 224° |
| 2026-05-07 20:08 | 10.22925 | -78.17224 | 35597 ft | 454 kts | 224° |
| 2026-05-07 20:08 | 10.20656 | -78.19488 | 34754 ft | 459 kts | 224° |
| 2026-05-07 20:08 | 10.18363 | -78.21775 | 33813 ft | 467 kts | 224° |
| 2026-05-07 20:08 | 10.16039 | -78.24096 | 33027 ft | 468 kts | 224° |
| 2026-05-07 20:09 | 10.13729 | -78.26400 | 32481 ft | 464 kts | 224° |
| 2026-05-07 20:09 | 10.11433 | -78.28690 | 32038 ft | 458 kts | 224° |
| 2026-05-07 20:09 | 10.09172 | -78.30944 | 31541 ft | 454 kts | 224° |
| 2026-05-07 20:10 | 10.04695 | -78.35407 | 30408 ft | 451 kts | 224° |
| 2026-05-07 20:10 | 10.02489 | -78.37605 | 29849 ft | 449 kts | 224° |
| 2026-05-07 20:10 | 10.00262 | -78.39823 | 29237 ft | 447 kts | 224° |
| 2026-05-07 20:10 | 9.98021 | -78.42055 | 28698 ft | 444 kts | 224° |
| 2026-05-07 20:11 | 9.95851 | -78.44216 | 28200 ft | 440 kts | 224° |
| 2026-05-07 20:11 | 9.93679 | -78.46378 | 27704 ft | 437 kts | 224° |
| 2026-05-07 20:11 | 9.91520 | -78.48528 | 27209 ft | 434 kts | 224° |
| 2026-05-07 20:11 | 9.89378 | -78.50660 | 26720 ft | 431 kts | 223° |
| 2026-05-07 20:12 | 9.87246 | -78.52780 | 26242 ft | 429 kts | 223° |
| 2026-05-07 20:12 | 9.85119 | -78.54897 | 25766 ft | 426 kts | 223° |
| 2026-05-07 20:12 | 9.83008 | -78.56997 | 25298 ft | 424 kts | 223° |
| 2026-05-07 20:12 | 9.80899 | -78.59094 | 24839 ft | 422 kts | 223° |
| 2026-05-07 20:13 | 9.78807 | -78.61174 | 24389 ft | 420 kts | 223° |
| 2026-05-07 20:13 | 9.77432 | -78.62541 | 24090 ft | 419 kts | 223° |
| 2026-05-07 20:13 | 9.74649 | -78.65307 | 23489 ft | 417 kts | 223° |
| 2026-05-07 20:13 | 9.72588 | -78.67355 | 22968 ft | 416 kts | 223° |
| 2026-05-07 20:14 | 9.71221 | -78.68714 | 22653 ft | 414 kts | 223° |
| 2026-05-07 20:14 | 9.68508 | -78.71408 | 22065 ft | 409 kts | 223° |
| 2026-05-07 20:14 | 9.66489 | -78.73413 | 21638 ft | 406 kts | 223° |
| 2026-05-07 20:14 | 9.64481 | -78.75407 | 21210 ft | 403 kts | 223° |
| 2026-05-07 20:15 | 9.62478 | -78.77396 | 20780 ft | 400 kts | 223° |
| 2026-05-07 20:15 | 9.61162 | -78.78703 | 20500 ft | 398 kts | 223° |
| 2026-05-07 20:15 | 9.59194 | -78.80656 | 20076 ft | 395 kts | 223° |
| 2026-05-07 20:15 | 9.57237 | -78.82598 | 19665 ft | 392 kts | 223° |
| 2026-05-07 20:16 | 9.55305 | -78.84515 | 19258 ft | 390 kts | 223° |
| 2026-05-07 20:16 | 9.53367 | -78.86437 | 18843 ft | 387 kts | 223° |
| 2026-05-07 20:16 | 9.51449 | -78.88341 | 18431 ft | 385 kts | 223° |
| 2026-05-07 20:16 | 9.49543 | -78.90230 | 18002 ft | 382 kts | 222° |
| 2026-05-07 20:17 | 9.47650 | -78.92108 | 17550 ft | 379 kts | 222° |
| 2026-05-07 20:17 | 9.45791 | -78.93951 | 17137 ft | 376 kts | 222° |
| 2026-05-07 20:17 | 9.43934 | -78.95791 | 16743 ft | 372 kts | 222° |
| 2026-05-07 20:17 | 9.42105 | -78.97604 | 16347 ft | 363 kts | 222° |
| 2026-05-07 20:18 | 9.40330 | -78.99363 | 15984 ft | 354 kts | 222° |
| 2026-05-07 20:18 | 9.38569 | -79.01108 | 15593 ft | 352 kts | 222° |
| 2026-05-07 20:18 | 9.36832 | -79.02829 | 15215 ft | 351 kts | 221° |
| 2026-05-07 20:18 | 9.35089 | -79.04556 | 14838 ft | 349 kts | 221° |
| 2026-05-07 20:19 | 9.33356 | -79.06273 | 14460 ft | 348 kts | 221° |
| 2026-05-07 20:19 | 9.31631 | -79.07980 | 14097 ft | 347 kts | 221° |
| 2026-05-07 20:19 | 9.29908 | -79.09687 | 13727 ft | 346 kts | 221° |
| 2026-05-07 20:19 | 9.28183 | -79.11396 | 13301 ft | 345 kts | 221° |
| 2026-05-07 20:20 | 9.26495 | -79.13067 | 12935 ft | 342 kts | 221° |
| 2026-05-07 20:20 | 9.24663 | -79.14555 | 12610 ft | 334 kts | 210° |
| 2026-05-07 20:20 | 9.22715 | -79.15826 | 12201 ft | 333 kts | 210° |
| 2026-05-07 20:20 | 9.20778 | -79.17107 | 11798 ft | 332 kts | 211° |
| 2026-05-07 20:21 | 9.18852 | -79.18391 | 11408 ft | 331 kts | 211° |
| 2026-05-07 20:21 | 9.16942 | -79.19667 | 11018 ft | 330 kts | 211° |
| 2026-05-07 20:21 | 9.15026 | -79.20948 | 10626 ft | 329 kts | 211° |
| 2026-05-07 20:21 | 9.13120 | -79.22223 | 10198 ft | 328 kts | 212° |
| 2026-05-07 20:22 | 9.11224 | -79.23492 | 9821 ft | 326 kts | 212° |
| 2026-05-07 20:22 | 9.09338 | -79.24753 | 9404 ft | 325 kts | 212° |
| 2026-05-07 20:22 | 9.07456 | -79.26012 | 8991 ft | 325 kts | 212° |
| 2026-05-07 20:22 | 9.05567 | -79.27275 | 8573 ft | 324 kts | 212° |
| 2026-05-07 20:23 | 9.03701 | -79.28523 | 8197 ft | 321 kts | 212° |
| 2026-05-07 20:23 | 9.01830 | -79.29721 | 7804 ft | 316 kts | 207° |
| 2026-05-07 20:23 | 8.99930 | -79.30748 | 7393 ft | 304 kts | 207° |
| 2026-05-07 20:23 | 8.98106 | -79.31743 | 7048 ft | 292 kts | 208° |
| 2026-05-07 20:24 | 8.96382 | -79.32693 | 6731 ft | 282 kts | 208° |
| 2026-05-07 20:24 | 8.94692 | -79.33629 | 6416 ft | 273 kts | 208° |
| 2026-05-07 20:24 | 8.93056 | -79.34538 | 6115 ft | 263 kts | 208° |
| 2026-05-07 20:24 | 8.91480 | -79.35413 | 5807 ft | 254 kts | 208° |
| 2026-05-07 20:25 | 8.89958 | -79.36259 | 5524 ft | 245 kts | 208° |
| 2026-05-07 20:25 | 8.88489 | -79.37076 | 5250 ft | 236 kts | 209° |
| 2026-05-07 20:25 | 8.87077 | -79.37861 | 5010 ft | 228 kts | 209° |
| 2026-05-07 20:25 | 8.85695 | -79.38628 | 4827 ft | 225 kts | 209° |
| 2026-05-07 20:26 | 8.84330 | -79.39387 | 4587 ft | 224 kts | 209° |
| 2026-05-07 20:26 | 8.83109 | -79.40334 | 4270 ft | 223 kts | 236° |
| 2026-05-07 20:26 | 8.82639 | -79.41784 | 3965 ft | 219 kts | 273° |
| 2026-05-07 20:26 | 8.83064 | -79.43217 | 3718 ft | 212 kts | 304° |
| 2026-05-07 20:27 | 8.83954 | -79.44383 | 3512 ft | 208 kts | 310° |
| 2026-05-07 20:27 | 8.84854 | -79.45509 | 3362 ft | 202 kts | 310° |
| 2026-05-07 20:27 | 8.85731 | -79.46564 | 3321 ft | 188 kts | 317° |
| 2026-05-07 20:27 | 8.86813 | -79.47079 | 3356 ft | 164 kts | 355° |
| 2026-05-07 20:28 | 8.87909 | -79.46935 | 3253 ft | 162 kts | 15° |
| 2026-05-07 20:28 | 8.88993 | -79.46608 | 3056 ft | 162 kts | 16° |
| 2026-05-07 20:28 | 8.90063 | -79.46267 | 2833 ft | 161 kts | 16° |
| 2026-05-07 20:28 | 8.91128 | -79.45915 | 2620 ft | 157 kts | 16° |
| 2026-05-07 20:29 | 8.92138 | -79.45574 | 2410 ft | 150 kts | 16° |
| 2026-05-07 20:29 | 8.93119 | -79.45242 | 2223 ft | 144 kts | 15° |
| 2026-05-07 20:29 | 8.94051 | -79.44933 | 2069 ft | 139 kts | 18° |
| 2026-05-07 20:29 | 8.94966 | -79.44613 | 1930 ft | 139 kts | 19° |
| 2026-05-07 20:30 | 8.95883 | -79.44283 | 1811 ft | 140 kts | 20° |
| 2026-05-07 20:30 | 8.96736 | -79.43808 | 1681 ft | 140 kts | 30° |
| 2026-05-07 20:30 | 8.97567 | -79.43306 | 1531 ft | 140 kts | 28° |
| 2026-05-07 20:30 | 8.98421 | -79.42825 | 1350 ft | 141 kts | 27° |
| 2026-05-07 20:31 | 8.99276 | -79.42344 | 1108 ft | 138 kts | 27° |
| 2026-05-07 20:31 | 9.00089 | -79.41890 | 919 ft | 134 kts | 27° |
| 2026-05-07 20:31 | 9.00917 | -79.41426 | 714 ft | 139 kts | 28° |
| 2026-05-07 20:31 | 9.01773 | -79.40947 | 566 ft | 144 kts | 29° |
| 2026-05-07 20:32 | 9.02653 | -79.40452 | 438 ft | 148 kts | 29° |
| 2026-05-07 20:32 | 9.03548 | -79.39943 | 293 ft | 151 kts | 30° |
| 2026-05-07 20:32 | 9.04442 | -79.39441 | 160 ft | 145 kts | 30° |
| 2026-05-07 20:32 | 9.05299 | -79.38962 | 45 ft | 133 kts | 30° |
| 2026-05-07 20:33 | 9.05995 | -79.38559 | 34 ft | 83 kts | 29° |
| 2026-05-07 20:33 | 9.06341 | -79.38379 | 33 ft | 34 kts | 7° |
| 2026-05-07 20:33 | 9.06518 | -79.38389 | 32 ft | 23 kts | 347° |
| 2026-05-07 20:33 | 9.06659 | -79.38454 | 32 ft | 20 kts | 287° |
| 2026-05-07 20:34 | 9.06577 | -79.38534 | 32 ft | 19 kts | 200° |
| 2026-05-07 20:34 | 9.06450 | -79.38586 | 32 ft | 20 kts | 203° |
| 2026-05-07 20:34 | 9.06337 | -79.38644 | 32 ft | 15 kts | 233° |
| 2026-05-07 20:34 | 9.06371 | -79.38740 | 32 ft | 17 kts | 301° |
| 2026-05-07 20:35 | 9.06372 | -79.38803 | 32 ft | 9 kts | 207° |
| 2026-05-07 20:35 | 9.06304 | -79.38800 | 32 ft | 6 kts | 188° |
| 2026-05-07 20:35 | 9.06301 | -79.38803 | 32 ft | 0 kts | 212° |
| 2026-05-07 20:36 | 9.06300 | -79.38804 | 32 ft | 0 kts | 225° |
| 2026-05-07 20:36 | 9.06294 | -79.38821 | 32 ft | 6 kts | 260° |
| 2026-05-07 20:36 | 9.06301 | -79.38863 | 32 ft | 7 kts | 280° |
| 2026-05-07 20:36 | 9.06307 | -79.38894 | 32 ft | 0 kts | 281° |